Time;durP1;ratioP1;P1;durP2;ratioP2;P2;SDS_P1;SDS_P2;PMS_P1;PMS_P2;Temp;Humidity;BMP_temperature;BMP_pressure;BME280_temperature;BME280_humidity;BME280_pressure;Samples;Min_cycle;Max_cycle;Signal;HPM_P1;HPM_P2
2022/09/10 00:01:05;;;;;;;1.40;1.17;;;14.60;99.90;;;;;;6081370;23;20070;-75
2022/09/10 00:03:31;;;;;;;1.10;1.00;;;14.50;99.90;;;;;;6054798;23;20750;-74
2022/09/10 00:05:58;;;;;;;1.55;1.13;;;14.50;99.90;;;;;;6081379;23;20347;-74
2022/09/10 00:08:25;;;;;;;1.08;0.90;;;14.50;99.90;;;;;;6081829;23;20026;-74
2022/09/10 00:10:52;;;;;;;1.10;1.00;;;14.50;99.90;;;;;;6083914;23;20335;-74
2022/09/10 00:13:20;;;;;;;1.83;1.20;;;14.50;99.90;;;;;;6082427;23;20018;-74
2022/09/10 00:15:48;;;;;;;1.88;1.40;;;14.50;99.90;;;;;;6083326;23;20467;-74
2022/09/10 00:18:16;;;;;;;1.52;1.00;;;14.40;99.90;;;;;;6086741;23;20169;-74
2022/09/10 00:20:50;;;;;;;1.00;0.90;;;14.40;99.90;;;;;;6085853;23;20048;-74
2022/09/10 00:23:18;;;;;;;1.40;0.98;;;14.40;99.90;;;;;;6086802;23;20471;-74
2022/09/10 00:25:45;;;;;;;1.38;1.00;;;14.40;99.90;;;;;;6086968;23;20044;-74
2022/09/10 00:28:12;;;;;;;1.27;1.17;;;14.30;99.90;;;;;;6086332;23;20101;-74
2022/09/10 00:30:40;;;;;;;1.92;1.40;;;14.30;99.90;;;;;;6060295;23;20034;-74
2022/09/10 00:33:07;;;;;;;1.63;1.25;;;14.30;99.90;;;;;;6084412;23;20221;-74
2022/09/10 00:35:34;;;;;;;1.75;1.38;;;14.30;99.90;;;;;;6085997;23;20026;-74
2022/09/10 00:38:01;;;;;;;1.92;1.30;;;14.30;99.90;;;;;;6085072;23;20027;-74
2022/09/10 00:40:28;;;;;;;1.92;1.40;;;14.30;99.90;;;;;;6087975;23;20024;-74
2022/09/10 00:42:55;;;;;;;3.25;2.67;;;14.20;99.90;;;;;;6086017;23;20023;-74
2022/09/10 00:45:30;;;;;;;2.67;2.30;;;14.20;99.90;;;;;;6062384;23;20467;-74
2022/09/10 00:48:10;;;;;;;2.05;1.85;;;14.20;99.90;;;;;;6085431;23;20033;-74
2022/09/10 00:50:39;;;;;;;2.33;1.80;;;14.20;99.90;;;;;;6085919;23;20105;-74
2022/09/10 00:53:08;;;;;;;2.42;1.90;;;14.20;99.90;;;;;;6085324;23;20022;-74
2022/09/10 00:55:34;;;;;;;2.80;2.47;;;14.20;99.90;;;;;;6085933;23;20034;-74
2022/09/10 00:58:02;;;;;;;3.25;2.25;;;14.20;99.90;;;;;;6085957;23;20215;-74
2022/09/10 01:00:30;;;;;;;2.22;2.03;;;14.20;99.90;;;;;;6086817;23;20026;-74
2022/09/10 01:02:58;;;;;;;1.88;1.48;;;14.20;99.90;;;;;;6086441;23;20026;-74
2022/09/10 01:05:25;;;;;;;2.60;2.10;;;14.20;99.90;;;;;;6086095;23;20513;-74
2022/09/10 01:07:52;;;;;;;2.78;2.10;;;14.20;99.90;;;;;;6114921;23;20257;-74
2022/09/10 01:10:23;;;;;;;2.63;2.00;;;14.10;99.90;;;;;;6116299;23;20018;-74
2022/09/10 01:12:53;;;;;;;3.05;2.13;;;14.20;99.90;;;;;;6090712;23;20030;-74
2022/09/10 01:15:44;;;;;;;2.38;1.80;;;14.20;99.90;;;;;;6090052;23;20186;-74
2022/09/10 01:18:27;;;;;;;2.65;2.20;;;14.10;99.90;;;;;;6115768;23;20026;-74
2022/09/10 01:21:22;;;;;;;2.50;1.80;;;14.10;99.90;;;;;;6090082;23;20522;-74
2022/09/10 01:23:56;;;;;;;1.90;1.50;;;14.10;99.90;;;;;;6088205;23;20058;-74
2022/09/10 01:26:35;;;;;;;2.80;1.33;;;14.10;99.90;;;;;;6116729;23;20125;-74
2022/09/10 01:29:15;;;;;;;2.08;1.52;;;14.00;99.90;;;;;;6091023;23;20459;-74
2022/09/10 01:32:13;;;;;;;2.13;1.92;;;14.10;99.90;;;;;;6068063;23;20041;-74
2022/09/10 01:35:14;;;;;;;2.05;1.70;;;14.00;99.90;;;;;;6065065;23;20036;-74
2022/09/10 01:38:03;;;;;;;1.90;1.70;;;14.00;99.90;;;;;;6068483;23;20033;-74
2022/09/10 01:40:31;;;;;;;2.22;1.77;;;14.00;99.90;;;;;;6097676;23;20063;-74
2022/09/10 01:43:06;;;;;;;1.45;1.30;;;14.00;99.90;;;;;;6093418;23;20265;-74
2022/09/10 01:45:41;;;;;;;2.40;1.60;;;13.90;99.90;;;;;;6091741;23;20033;-74
2022/09/10 01:48:54;;;;;;;2.55;1.98;;;13.90;99.90;;;;;;6065744;23;20065;-74
2022/09/10 01:51:40;;;;;;;2.10;1.90;;;13.90;99.90;;;;;;6024954;23;20095;-74
2022/09/10 01:54:25;;;;;;;2.25;1.95;;;13.90;99.90;;;;;;6028191;23;20035;-74
2022/09/10 01:56:54;;;;;;;2.00;1.80;;;13.90;99.90;;;;;;6077474;23;20441;-75
2022/09/10 01:59:38;;;;;;;2.63;1.90;;;13.90;99.90;;;;;;6117762;23;20018;-74
2022/09/10 02:02:18;;;;;;;2.60;1.80;;;13.80;99.90;;;;;;6066804;23;20022;-74
2022/09/10 02:04:45;;;;;;;2.33;2.00;;;13.80;99.90;;;;;;6116895;23;20390;-74
2022/09/10 02:07:12;;;;;;;3.72;2.28;;;13.80;99.90;;;;;;6066274;23;20052;-74
2022/09/10 02:09:39;;;;;;;2.83;2.08;;;13.80;99.90;;;;;;6064111;23;20466;-74
2022/09/10 02:12:06;;;;;;;2.38;2.17;;;13.70;99.90;;;;;;6088534;23;20022;-74
2022/09/10 02:14:33;;;;;;;2.03;1.70;;;13.70;99.90;;;;;;6064164;23;20026;-74
2022/09/10 02:17:00;;;;;;;2.03;1.67;;;13.70;99.90;;;;;;6063962;23;20024;-74
2022/09/10 02:19:26;;;;;;;1.63;1.45;;;13.70;99.90;;;;;;6088033;23;20708;-74
2022/09/10 02:21:55;;;;;;;2.33;1.88;;;13.70;99.90;;;;;;6066035;23;20097;-74
2022/09/10 02:24:21;;;;;;;1.92;1.60;;;13.70;99.90;;;;;;6091794;23;20022;-74
2022/09/10 02:26:48;;;;;;;1.77;1.67;;;13.70;99.90;;;;;;6115363;23;20465;-75
2022/09/10 02:29:15;;;;;;;1.30;1.20;;;13.70;99.90;;;;;;6090331;23;20449;-74
2022/09/10 02:31:42;;;;;;;1.48;1.20;;;13.70;99.90;;;;;;6090030;23;20028;-74
2022/09/10 02:34:10;;;;;;;1.77;1.50;;;13.60;99.90;;;;;;6064767;23;20025;-74
2022/09/10 02:36:36;;;;;;;2.60;1.50;;;13.60;99.90;;;;;;6090726;23;20647;-73
2022/09/10 02:39:03;;;;;;;1.90;1.65;;;13.60;99.90;;;;;;6092689;23;20029;-74
2022/09/10 02:41:32;;;;;;;2.05;1.60;;;13.60;99.90;;;;;;6066700;23;20018;-73
2022/09/10 02:44:02;;;;;;;1.88;1.58;;;13.60;99.90;;;;;;6091749;23;20037;-74
2022/09/10 02:46:29;;;;;;;1.85;1.73;;;13.60;99.90;;;;;;6091386;23;20101;-74
2022/09/10 02:48:57;;;;;;;1.67;1.48;;;13.60;99.90;;;;;;6066284;23;20065;-74
2022/09/10 02:51:24;;;;;;;1.63;1.42;;;13.50;99.90;;;;;;6089411;23;20029;-74
2022/09/10 02:53:50;;;;;;;1.40;1.30;;;13.50;99.90;;;;;;6065182;23;20032;-74
2022/09/10 02:56:18;;;;;;;1.63;1.30;;;13.50;99.90;;;;;;6092385;23;20337;-73
2022/09/10 02:58:45;;;;;;;1.05;0.95;;;13.50;99.90;;;;;;6068481;23;20025;-74
2022/09/10 03:01:13;;;;;;;1.90;1.30;;;13.50;99.90;;;;;;6067928;23;20025;-74
2022/09/10 03:03:40;;;;;;;2.42;2.08;;;13.50;99.90;;;;;;6114389;23;20025;-74
2022/09/10 03:06:07;;;;;;;2.60;2.40;;;13.60;99.90;;;;;;6068089;23;20032;-74
2022/09/10 03:08:34;;;;;;;2.88;2.28;;;13.60;99.90;;;;;;6090893;23;20024;-74
2022/09/10 03:11:01;;;;;;;2.03;1.83;;;13.70;99.90;;;;;;6089797;23;20117;-74
2022/09/10 03:13:28;;;;;;;2.30;2.10;;;13.70;99.90;;;;;;6066181;23;20049;-74
2022/09/10 03:15:55;;;;;;;2.80;2.50;;;13.70;99.90;;;;;;6089826;23;20036;-74
2022/09/10 03:18:22;;;;;;;3.80;3.33;;;13.70;99.90;;;;;;6088763;23;20018;-73
2022/09/10 03:20:49;;;;;;;3.92;3.22;;;13.80;99.90;;;;;;6065033;23;20032;-73
2022/09/10 03:23:16;;;;;;;2.78;2.38;;;13.80;99.90;;;;;;6089219;23;20106;-74
2022/09/10 03:25:43;;;;;;;3.25;2.38;;;13.90;99.90;;;;;;6090252;23;20530;-74
2022/09/10 03:28:15;;;;;;;2.63;2.10;;;13.90;99.90;;;;;;6091188;23;20065;-74
2022/09/10 03:30:41;;;;;;;2.42;2.15;;;14.00;99.90;;;;;;6088967;23;20049;-74
2022/09/10 03:33:10;;;;;;;3.17;2.15;;;14.00;99.90;;;;;;6088897;23;20022;-74
2022/09/10 03:35:37;;;;;;;2.42;2.22;;;14.00;99.90;;;;;;6114434;23;20034;-73
2022/09/10 03:38:05;;;;;;;3.10;2.80;;;14.10;99.90;;;;;;6065875;23;20284;-74
2022/09/10 03:40:32;;;;;;;3.05;2.42;;;14.10;99.90;;;;;;6065603;23;20350;-74
2022/09/10 03:43:00;;;;;;;3.30;2.95;;;14.10;99.90;;;;;;6090748;23;20028;-74
2022/09/10 03:45:27;;;;;;;3.85;3.45;;;14.10;99.90;;;;;;6065900;23;20096;-74
2022/09/10 03:47:54;;;;;;;4.25;3.85;;;14.10;99.90;;;;;;6089680;23;20026;-74
2022/09/10 03:50:20;;;;;;;4.45;3.97;;;14.10;99.90;;;;;;6065186;23;20040;-74
2022/09/10 03:52:47;;;;;;;3.45;3.15;;;14.10;99.90;;;;;;6114027;23;20030;-74
2022/09/10 03:55:14;;;;;;;3.13;2.72;;;14.10;99.90;;;;;;6089619;23;20026;-74
2022/09/10 03:57:41;;;;;;;3.08;2.78;;;14.10;99.90;;;;;;6066068;23;20176;-74
2022/09/10 04:00:10;;;;;;;3.17;2.85;;;14.20;99.90;;;;;;6089645;23;20026;-74
2022/09/10 04:02:37;;;;;;;3.10;2.80;;;14.20;99.90;;;;;;6065785;23;20028;-74
2022/09/10 04:05:05;;;;;;;4.32;3.90;;;14.20;99.90;;;;;;6065771;23;20153;-74
2022/09/10 04:07:32;;;;;;;3.75;3.33;;;14.20;99.90;;;;;;6089572;23;20044;-75
2022/09/10 04:09:59;;;;;;;4.00;3.70;;;14.20;99.90;;;;;;6065942;23;20026;-74
2022/09/10 04:12:25;;;;;;;3.85;3.47;;;14.20;99.90;;;;;;6064076;23;20018;-74
2022/09/10 04:14:52;;;;;;;3.50;2.88;;;14.20;99.90;;;;;;6092445;23;20030;-74
2022/09/10 04:17:19;;;;;;;3.15;2.85;;;14.20;99.90;;;;;;6092966;23;20028;-74
2022/09/10 04:19:46;;;;;;;3.67;3.30;;;14.20;99.90;;;;;;6093326;23;20113;-74
2022/09/10 04:22:13;;;;;;;4.55;3.20;;;14.20;99.90;;;;;;6092442;23;20018;-74
2022/09/10 04:24:40;;;;;;;3.85;2.80;;;14.30;99.90;;;;;;6093776;23;20056;-74
2022/09/10 04:27:07;;;;;;;3.08;2.53;;;14.20;99.90;;;;;;6120114;23;20028;-73
2022/09/10 04:29:33;;;;;;;3.50;2.80;;;14.30;99.90;;;;;;6093164;23;20028;-74
2022/09/10 04:32:00;;;;;;;2.90;2.50;;;14.30;99.90;;;;;;6065317;23;20044;-74
2022/09/10 04:34:27;;;;;;;3.00;2.70;;;14.30;99.90;;;;;;6065104;23;20037;-74
2022/09/10 04:36:54;;;;;;;2.80;2.45;;;14.30;99.90;;;;;;6087979;23;20109;-73
2022/09/10 04:39:21;;;;;;;2.70;2.25;;;14.30;99.90;;;;;;6068487;23;20038;-74
2022/09/10 04:41:47;;;;;;;3.58;3.05;;;14.30;99.90;;;;;;6070029;23;20435;-74
2022/09/10 04:44:18;;;;;;;3.90;3.38;;;14.30;99.90;;;;;;6069967;23;20108;-74
2022/09/10 04:46:46;;;;;;;3.60;3.22;;;14.40;99.90;;;;;;6092910;23;20033;-73
2022/09/10 04:49:13;;;;;;;4.03;3.60;;;14.30;99.90;;;;;;6093187;23;20120;-74
2022/09/10 04:51:40;;;;;;;4.15;3.65;;;14.30;99.90;;;;;;6068097;23;20025;-74
2022/09/10 04:54:06;;;;;;;3.72;3.25;;;14.30;99.90;;;;;;6069702;23;20025;-73
2022/09/10 04:56:33;;;;;;;2.85;2.58;;;14.30;99.90;;;;;;6093120;23;20733;-74
2022/09/10 04:59:00;;;;;;;3.35;3.00;;;14.30;99.90;;;;;;6091918;23;20045;-79
2022/09/10 05:01:27;;;;;;;4.20;3.78;;;14.30;99.90;;;;;;6088624;23;20026;-79
2022/09/10 05:03:55;;;;;;;4.80;4.35;;;14.30;99.90;;;;;;6085378;23;20026;-80
2022/09/10 05:06:22;;;;;;;4.43;4.03;;;14.30;99.90;;;;;;6063101;23;20025;-78
2022/09/10 05:08:49;;;;;;;4.07;3.67;;;14.30;99.90;;;;;;6087082;23;20049;-79
2022/09/10 05:11:18;;;;;;;3.70;3.38;;;14.30;99.90;;;;;;6087220;23;20074;-80
2022/09/10 05:13:45;;;;;;;3.28;2.63;;;14.30;99.90;;;;;;6087527;23;20506;-79
2022/09/10 05:16:12;;;;;;;3.65;2.70;;;14.30;99.90;;;;;;6063050;23;20097;-80
2022/09/10 05:18:39;;;;;;;3.45;3.10;;;14.30;99.90;;;;;;6063747;23;20146;-82
2022/09/10 05:21:06;;;;;;;3.13;2.83;;;14.30;99.90;;;;;;6067472;23;20336;-80
2022/09/10 05:23:32;;;;;;;3.88;3.47;;;14.40;99.90;;;;;;6089921;23;20097;-80
2022/09/10 05:25:59;;;;;;;3.60;3.30;;;14.30;99.90;;;;;;6091625;23;20094;-81
2022/09/10 05:28:26;;;;;;;3.60;3.30;;;14.30;99.90;;;;;;6069633;23;20021;-82
2022/09/10 05:30:53;;;;;;;4.43;4.03;;;14.40;99.90;;;;;;6092992;23;20026;-80
2022/09/10 05:33:20;;;;;;;3.25;2.90;;;14.40;99.90;;;;;;6092065;23;20615;-80
2022/09/10 05:35:50;;;;;;;3.20;2.88;;;14.40;99.90;;;;;;6069475;23;20307;-80
2022/09/10 05:38:17;;;;;;;3.30;2.95;;;14.40;99.90;;;;;;6093298;23;20113;-80
2022/09/10 05:40:44;;;;;;;2.17;1.98;;;14.40;99.90;;;;;;6068887;23;20026;-80
2022/09/10 05:43:11;;;;;;;2.70;2.13;;;14.50;99.90;;;;;;6093146;23;20024;-79
2022/09/10 05:45:38;;;;;;;3.65;2.85;;;14.50;99.90;;;;;;6067397;23;20093;-79
2022/09/10 05:48:05;;;;;;;2.10;1.90;;;14.50;99.90;;;;;;6064853;23;20022;-80
2022/09/10 05:50:32;;;;;;;2.92;2.55;;;14.50;99.90;;;;;;6089062;23;20104;-80
2022/09/10 05:53:00;;;;;;;2.35;1.88;;;14.50;99.90;;;;;;6091790;23;20366;-79
2022/09/10 05:55:29;;;;;;;2.35;2.15;;;14.50;99.90;;;;;;6093582;23;20037;-80
2022/09/10 05:57:57;;;;;;;3.65;3.08;;;14.50;99.90;;;;;;6068945;23;20025;-79
2022/09/10 06:00:24;;;;;;;3.08;2.47;;;14.50;99.90;;;;;;6068497;23;20021;-80
2022/09/10 06:02:51;;;;;;;4.13;2.67;;;14.50;99.90;;;;;;6092030;23;20026;-80
2022/09/10 06:05:21;;;;;;;2.60;2.40;;;14.60;99.90;;;;;;6093004;23;20034;-80
2022/09/10 06:07:48;;;;;;;2.83;2.53;;;14.60;99.90;;;;;;6092769;23;20036;-79
2022/09/10 06:10:15;;;;;;;2.67;2.25;;;14.60;99.90;;;;;;6069021;23;20102;-80
2022/09/10 06:12:46;;;;;;;1.90;1.73;;;14.70;99.90;;;;;;6068981;23;20026;-80
2022/09/10 06:15:13;;;;;;;2.10;1.90;;;14.70;99.90;;;;;;6092377;23;20029;-79
2022/09/10 06:17:40;;;;;;;2.47;2.05;;;14.70;99.90;;;;;;6069092;23;20022;-80
2022/09/10 06:20:09;;;;;;;1.90;1.60;;;14.70;99.90;;;;;;6092452;23;20338;-79
2022/09/10 06:22:38;;;;;;;1.73;1.60;;;14.70;99.90;;;;;;6116579;23;20077;-80
2022/09/10 06:25:06;;;;;;;2.83;2.55;;;14.70;99.90;;;;;;6089136;23;20026;-81
2022/09/10 06:27:33;;;;;;;2.00;1.80;;;14.80;99.90;;;;;;6089079;23;20024;-80
2022/09/10 06:30:00;;;;;;;2.67;2.40;;;14.80;99.90;;;;;;6083347;23;20078;-80
2022/09/10 06:32:27;;;;;;;2.75;2.25;;;14.80;99.90;;;;;;6083537;23;20065;-80
2022/09/10 06:34:54;;;;;;;3.30;2.95;;;14.80;99.90;;;;;;6058241;23;20033;-80
2022/09/10 06:37:21;;;;;;;3.45;3.13;;;14.80;99.90;;;;;;6059767;23;20391;-80
2022/09/10 06:39:48;;;;;;;4.40;4.00;;;14.80;99.90;;;;;;6083570;23;20524;-80
2022/09/10 06:42:15;;;;;;;3.63;3.33;;;14.90;99.90;;;;;;6060762;23;20026;-80
2022/09/10 06:44:43;;;;;;;4.55;4.03;;;14.90;99.90;;;;;;6084527;23;20022;-81
2022/09/10 06:47:10;;;;;;;3.38;3.00;;;15.00;99.90;;;;;;6084172;23;20026;-80
2022/09/10 06:49:57;;;;;;;2.50;2.20;;;15.00;99.90;;;;;;6067958;23;20084;-79
2022/09/10 06:52:23;;;;;;;3.20;2.80;;;15.10;99.90;;;;;;6060228;23;20052;-81
2022/09/10 06:54:51;;;;;;;3.75;3.00;;;15.10;99.90;;;;;;6085223;23;20317;-80
2022/09/10 06:57:18;;;;;;;4.63;4.20;;;15.10;99.90;;;;;;6060274;23;20093;-80
2022/09/10 06:59:45;;;;;;;4.68;4.18;;;15.10;99.90;;;;;;6084290;23;20324;-80
2022/09/10 07:02:12;;;;;;;3.53;3.22;;;15.10;99.90;;;;;;6083595;23;20026;-80
2022/09/10 07:04:39;;;;;;;3.53;3.22;;;15.20;99.90;;;;;;6083849;23;20382;-80
2022/09/10 07:07:06;;;;;;;2.85;2.53;;;15.20;99.90;;;;;;6083553;23;20505;-81
2022/09/10 07:09:33;;;;;;;3.42;3.13;;;15.30;99.90;;;;;;6059975;23;20473;-80
2022/09/10 07:12:00;;;;;;;3.35;3.05;;;15.40;99.90;;;;;;6059542;23;20370;-80
2022/09/10 07:14:27;;;;;;;2.92;2.60;;;15.40;99.90;;;;;;6060464;23;20338;-80
2022/09/10 07:16:54;;;;;;;3.58;3.28;;;15.40;99.90;;;;;;6059319;23;20029;-80
2022/09/10 07:19:21;;;;;;;3.42;3.13;;;15.40;99.90;;;;;;6083628;23;20381;-80
2022/09/10 07:21:48;;;;;;;3.17;2.60;;;15.50;99.90;;;;;;6082386;23;20030;-80
2022/09/10 07:24:15;;;;;;;2.85;2.50;;;15.50;99.90;;;;;;6084300;23;20397;-80
2022/09/10 07:26:42;;;;;;;3.83;3.47;;;15.60;99.90;;;;;;6086925;23;20026;-80
2022/09/10 07:29:09;;;;;;;3.70;3.08;;;15.70;99.90;;;;;;6086303;23;20112;-80
2022/09/10 07:31:37;;;;;;;5.20;4.10;;;15.70;99.90;;;;;;6060068;23;20029;-80
2022/09/10 07:34:04;;;;;;;5.03;4.53;;;15.70;99.90;;;;;;6083348;23;20033;-81
2022/09/10 07:36:31;;;;;;;4.10;3.67;;;15.70;99.90;;;;;;6083625;23;20030;-80
2022/09/10 07:39:02;;;;;;;4.20;3.53;;;15.80;99.90;;;;;;6059714;23;20044;-80
2022/09/10 07:41:29;;;;;;;3.63;3.28;;;15.80;99.90;;;;;;6083962;23;20413;-78
2022/09/10 07:43:57;;;;;;;4.13;2.92;;;15.90;99.90;;;;;;6060216;23;20061;-79
2022/09/10 07:46:24;;;;;;;3.88;3.08;;;15.90;99.90;;;;;;6080036;23;20224;-80
2022/09/10 07:48:55;;;;;;;3.13;2.72;;;16.00;99.90;;;;;;6107005;23;20030;-80
2022/09/10 07:51:23;;;;;;;4.60;4.20;;;16.00;99.90;;;;;;6058036;23;20113;-80
2022/09/10 07:53:54;;;;;;;3.25;2.95;;;16.10;99.90;;;;;;6082304;23;20685;-80
2022/09/10 07:56:22;;;;;;;4.50;4.07;;;16.20;99.90;;;;;;6108210;23;20053;-80
2022/09/10 07:58:49;;;;;;;4.13;3.58;;;16.20;99.90;;;;;;6083113;23;20112;-80
2022/09/10 08:01:18;;;;;;;6.03;5.40;;;16.20;99.90;;;;;;6059214;23;20324;-79
2022/09/10 08:03:45;;;;;;;6.25;5.65;;;16.20;99.90;;;;;;6060113;23;20847;-79
2022/09/10 08:06:12;;;;;;;5.85;5.25;;;16.20;99.90;;;;;;6084348;23;20076;-80
2022/09/10 08:08:39;;;;;;;5.63;5.00;;;16.20;99.90;;;;;;6060040;23;20030;-80
2022/09/10 08:11:13;;;;;;;4.95;4.40;;;16.20;99.90;;;;;;6060542;23;20102;-79
2022/09/10 08:13:40;;;;;;;;;;;16.20;99.90;;;;;;6085794;23;20346;-80
2022/09/10 08:16:20;;;;;;;4.70;4.20;;;16.30;99.90;;;;;;6084447;23;19921;-79
2022/09/10 08:18:47;;;;;;;4.80;3.80;;;16.30;99.90;;;;;;6083400;23;20025;-79
2022/09/10 08:21:15;;;;;;;3.55;3.13;;;16.30;99.90;;;;;;6060297;23;20178;-79
2022/09/10 08:23:42;;;;;;;2.65;2.45;;;16.40;99.90;;;;;;6060082;23;20692;-79
2022/09/10 08:26:09;;;;;;;2.88;2.63;;;16.50;99.90;;;;;;6060520;23;20315;-79
2022/09/10 08:28:36;;;;;;;3.50;3.20;;;16.50;99.90;;;;;;6059741;23;20334;-79
2022/09/10 08:31:08;;;;;;;4.05;3.38;;;16.60;99.90;;;;;;6083860;23;20569;-79
2022/09/10 08:33:39;;;;;;;3.33;3.03;;;16.70;99.90;;;;;;6059196;23;20025;-78
2022/09/10 08:36:07;;;;;;;3.85;3.50;;;16.80;99.90;;;;;;6061107;23;20100;-80
2022/09/10 08:38:35;;;;;;;3.72;3.13;;;17.00;99.90;;;;;;6083782;23;20021;-80
2022/09/10 08:41:11;;;;;;;3.75;2.90;;;17.10;99.90;;;;;;6060369;23;20072;-79
2022/09/10 08:44:08;;;;;;;4.20;3.80;;;17.20;99.90;;;;;;6059080;23;20026;-76
2022/09/10 08:46:54;;;;;;;3.60;3.20;;;17.20;99.90;;;;;;6086656;23;20087;-76
2022/09/10 08:49:31;;;;;;;4.78;4.38;;;17.30;99.90;;;;;;6084616;23;20097;-76
2022/09/10 08:52:40;;;;;;;5.93;5.32;;;17.40;99.90;;;;;;6083194;23;20033;-76
2022/09/10 08:55:16;;;;;;;3.58;3.25;;;17.40;99.90;;;;;;5967882;23;20028;-76
2022/09/10 08:57:55;;;;;;;2.63;2.40;;;17.50;99.90;;;;;;5989391;23;20068;-76
2022/09/10 09:00:37;;;;;;;3.25;2.85;;;17.70;99.90;;;;;;5994471;23;20480;-76
2022/09/10 09:03:16;;;;;;;3.25;2.95;;;17.80;99.90;;;;;;6081833;23;20101;-75
2022/09/10 09:05:44;;;;;;;3.40;3.10;;;17.90;99.90;;;;;;6082808;23;20097;-76
2022/09/10 09:08:12;;;;;;;2.47;2.28;;;18.00;99.90;;;;;;6082422;23;20101;-75
2022/09/10 09:10:58;;;;;;;3.45;3.05;;;18.10;99.90;;;;;;6058170;23;20030;-75
2022/09/10 09:14:04;;;;;;;3.00;2.65;;;18.20;99.90;;;;;;6082860;23;20042;-76
2022/09/10 09:16:40;;;;;;;3.50;3.17;;;18.20;99.90;;;;;;6062634;23;20037;-75
2022/09/10 09:19:25;;;;;;;2.88;2.42;;;18.10;99.90;;;;;;6082899;23;20153;-76
2022/09/10 09:21:53;;;;;;;2.90;2.50;;;18.20;99.90;;;;;;6082438;23;20022;-75
2022/09/10 09:24:38;;;;;;;2.85;2.42;;;18.40;99.90;;;;;;6060063;23;20040;-76
2022/09/10 09:27:08;;;;;;;2.42;2.10;;;18.50;99.90;;;;;;6082926;23;20028;-77
2022/09/10 09:29:42;;;;;;;2.25;2.00;;;18.70;99.90;;;;;;6059553;23;20105;-76
2022/09/10 09:32:11;;;;;;;2.92;2.63;;;18.70;99.90;;;;;;6107890;23;20022;-77
2022/09/10 09:34:40;;;;;;;3.38;2.72;;;18.60;99.90;;;;;;6057911;23;20494;-77
2022/09/10 09:37:20;;;;;;;2.95;2.20;;;18.60;99.90;;;;;;6058698;23;20022;-77
2022/09/10 09:39:52;;;;;;;3.17;2.88;;;18.70;99.90;;;;;;6060054;23;20546;-77
2022/09/10 09:42:34;;;;;;;2.22;2.03;;;18.80;99.90;;;;;;6083849;23;20366;-76
2022/09/10 09:45:37;;;;;;;3.80;3.42;;;18.90;99.90;;;;;;6058984;23;20056;-76
2022/09/10 09:48:05;;;;;;;3.28;2.38;;;18.80;99.90;;;;;;6022576;23;20037;-76
2022/09/10 09:50:33;;;;;;;3.85;3.38;;;18.80;99.90;;;;;;6058759;23;20117;-77
2022/09/10 09:52:59;;;;;;;2.92;2.63;;;18.60;99.90;;;;;;6058541;23;20661;-76
2022/09/10 09:55:29;;;;;;;3.45;2.95;;;18.60;99.90;;;;;;6082885;23;20032;-77
2022/09/10 09:58:19;;;;;;;2.83;2.25;;;18.80;99.90;;;;;;6082354;23;20641;-76
2022/09/10 10:00:48;;;;;;;3.78;2.47;;;18.90;99.90;;;;;;6064832;23;20032;-77
2022/09/10 10:03:19;;;;;;;4.65;4.15;;;19.00;99.90;;;;;;6081011;23;20058;-77
2022/09/10 10:05:47;;;;;;;3.05;2.75;;;18.90;99.90;;;;;;6081194;23;20101;-76
2022/09/10 10:08:29;;;;;;;2.80;2.47;;;18.90;99.90;;;;;;6058282;23;20032;-77
2022/09/10 10:10:56;;;;;;;2.25;1.95;;;19.00;99.90;;;;;;6083630;23;20120;-77
2022/09/10 10:13:23;;;;;;;2.75;2.42;;;19.20;99.90;;;;;;6084085;23;20026;-77
2022/09/10 10:15:51;;;;;;;2.00;1.80;;;19.60;99.90;;;;;;6061021;23;20116;-76
2022/09/10 10:18:20;;;;;;;2.55;2.30;;;19.80;99.90;;;;;;6085190;23;20025;-77
2022/09/10 10:20:48;;;;;;;1.65;1.55;;;19.80;99.90;;;;;;6110926;23;20085;-77
2022/09/10 10:23:31;;;;;;;2.60;2.38;;;19.70;99.90;;;;;;6084823;23;20454;-76
2022/09/10 10:25:58;;;;;;;2.90;2.60;;;19.60;99.90;;;;;;6084887;23;20779;-77
2022/09/10 10:28:25;;;;;;;2.10;1.83;;;19.50;99.90;;;;;;6085230;23;20029;-77
2022/09/10 10:30:52;;;;;;;4.50;3.03;;;19.40;99.90;;;;;;6084739;23;20108;-77
2022/09/10 10:33:25;;;;;;;2.75;1.67;;;19.40;99.90;;;;;;6083376;23;20486;-76
2022/09/10 10:36:09;;;;;;;2.00;1.60;;;19.60;99.90;;;;;;6085107;23;20030;-76
2022/09/10 10:38:39;;;;;;;2.38;2.00;;;19.80;99.90;;;;;;6084572;23;20837;-76
2022/09/10 10:41:29;;;;;;;1.42;1.33;;;19.80;99.90;;;;;;6086622;23;20076;-76
2022/09/10 10:43:59;;;;;;;1.30;1.20;;;19.70;99.90;;;;;;6110832;23;20022;-76
2022/09/10 10:46:53;;;;;;;1.92;1.40;;;19.60;99.90;;;;;;6083517;23;20493;-76
2022/09/10 10:49:34;;;;;;;2.47;1.58;;;19.50;99.90;;;;;;6083896;23;20030;-76
2022/09/10 10:52:39;;;;;;;2.30;1.95;;;19.40;99.90;;;;;;6083679;23;20031;-76
2022/09/10 10:55:18;;;;;;;2.22;1.40;;;19.40;99.90;;;;;;6109690;23;20029;-76
2022/09/10 10:58:16;;;;;;;1.98;1.38;;;19.60;99.90;;;;;;6059920;23;20030;-76
2022/09/10 11:00:46;;;;;;;1.15;0.98;;;19.80;99.90;;;;;;6086363;23;20105;-76
2022/09/10 11:03:14;;;;;;;3.20;1.55;;;19.90;99.90;;;;;;6083839;23;20060;-77
2022/09/10 11:05:47;;;;;;;1.17;0.95;;;20.00;99.90;;;;;;6109595;23;20030;-77
2022/09/10 11:08:25;;;;;;;2.05;1.55;;;20.20;99.90;;;;;;6084151;23;20049;-78
2022/09/10 11:10:59;;;;;;;2.58;1.25;;;20.40;99.90;;;;;;6084235;23;20025;-77
2022/09/10 11:13:59;;;;;;;1.33;0.88;;;20.60;99.90;;;;;;6060049;23;20057;-76
2022/09/10 11:16:26;;;;;;;1.98;1.13;;;20.70;99.90;;;;;;6035557;23;20021;-76
2022/09/10 11:19:11;;;;;;;0.88;0.68;;;20.80;99.90;;;;;;6109663;23;20022;-76
2022/09/10 11:22:01;;;;;;;0.70;0.63;;;21.00;99.90;;;;;;6083835;23;20342;-77
2022/09/10 11:24:40;;;;;;;1.45;0.90;;;21.20;99.90;;;;;;6094106;23;20026;-76
2022/09/10 11:27:40;;;;;;;0.88;0.70;;;21.30;99.90;;;;;;6059370;23;20054;-76
2022/09/10 11:30:15;;;;;;;1.80;0.77;;;21.60;99.90;;;;;;6082410;23;20093;-76
2022/09/10 11:33:03;;;;;;;1.00;0.90;;;21.80;99.90;;;;;;6081942;23;20026;-76
2022/09/10 11:35:38;;;;;;;2.05;1.08;;;21.60;99.90;;;;;;6107926;23;20022;-77
2022/09/10 11:38:23;;;;;;;2.38;1.20;;;21.50;99.90;;;;;;6081912;23;20036;-76
2022/09/10 11:40:51;;;;;;;1.52;1.00;;;21.60;99.90;;;;;;6082844;23;20121;-77
2022/09/10 11:44:03;;;;;;;2.60;1.10;;;21.80;99.90;;;;;;6084696;23;20026;-76
2022/09/10 11:46:34;;;;;;;2.30;1.13;;;22.20;99.90;;;;;;6083049;23;20030;-77
2022/09/10 11:49:15;;;;;;;1.73;0.85;;;22.70;99.90;;;;;;6083871;23;20026;-76
2022/09/10 11:51:42;;;;;;;1.42;0.80;;;22.90;99.90;;;;;;6083851;23;20396;-76
2022/09/10 11:54:12;;;;;;;0.80;0.50;;;22.70;99.90;;;;;;6084027;23;20370;-77
2022/09/10 11:56:58;;;;;;;1.20;1.00;;;22.50;99.90;;;;;;6083756;23;20034;-76
2022/09/10 11:59:41;;;;;;;1.25;0.80;;;22.10;99.90;;;;;;6110617;23;20932;-76
2022/09/10 12:02:45;;;;;;;1.30;0.70;;;21.70;99.90;;;;;;6059271;23;20105;-76
2022/09/10 12:05:50;;;;;;;0.82;0.60;;;21.40;99.90;;;;;;6083846;23;20096;-76
2022/09/10 12:08:40;;;;;;;1.10;0.65;;;21.00;99.90;;;;;;6083436;23;20471;-76
2022/09/10 12:11:28;;;;;;;0.95;0.80;;;20.70;99.90;;;;;;6060011;23;20049;-76
2022/09/10 12:13:56;;;;;;;0.50;0.50;;;20.60;99.90;;;;;;6085247;23;20034;-76
2022/09/10 12:16:46;;;;;;;0.70;0.60;;;20.60;99.90;;;;;;6059655;23;20077;-75
2022/09/10 12:19:25;;;;;;;0.52;0.50;;;20.60;99.90;;;;;;6109859;23;20121;-76
2022/09/10 12:21:57;;;;;;;0.90;0.63;;;20.70;99.90;;;;;;6082399;23;20762;-77
2022/09/10 12:24:35;;;;;;;1.85;0.88;;;20.70;99.90;;;;;;6083672;23;20479;-76
2022/09/10 12:27:04;;;;;;;1.08;0.95;;;20.60;99.90;;;;;;6060612;23;20026;-76
2022/09/10 12:29:34;;;;;;;1.25;1.00;;;20.80;99.90;;;;;;6083677;23;20476;-77
2022/09/10 12:32:08;;;;;;;2.17;0.90;;;21.40;99.90;;;;;;6082591;23;20028;-76
2022/09/10 12:34:35;;;;;;;1.65;0.80;;;21.80;99.90;;;;;;6082778;23;20032;-77
2022/09/10 12:37:02;;;;;;;1.77;1.17;;;22.00;99.90;;;;;;6059593;23;20136;-77
2022/09/10 12:39:28;;;;;;;2.08;1.17;;;22.20;99.90;;;;;;6109120;23;20053;-77
2022/09/10 12:41:59;;;;;;;2.97;1.35;;;22.50;99.90;;;;;;6059656;23;20025;-76
2022/09/10 12:44:36;;;;;;;1.95;1.42;;;23.00;99.90;;;;;;6060201;23;20056;-77
2022/09/10 12:47:17;;;;;;;1.10;0.83;;;23.70;99.90;;;;;;6108682;23;20032;-78
2022/09/10 12:49:46;;;;;;;1.48;1.15;;;24.10;99.90;;;;;;6082982;23;20283;-77
2022/09/10 12:52:35;;;;;;;1.05;0.90;;;24.30;99.90;;;;;;6108935;23;20022;-78
2022/09/10 12:55:36;;;;;;;1.05;0.50;;;24.50;99.90;;;;;;6084386;23;20478;-76
2022/09/10 12:58:15;;;;;;;2.38;0.98;;;24.70;99.90;;;;;;6082831;23;20092;-77
2022/09/10 13:00:54;;;;;;;2.00;0.93;;;25.10;99.90;;;;;;6107613;23;20026;-77
2022/09/10 13:03:25;;;;;;;1.30;0.77;;;25.30;99.90;;;;;;6107875;23;20052;-77
2022/09/10 13:05:54;;;;;;;2.07;1.10;;;25.50;99.90;;;;;;6082840;23;20100;-77
2022/09/10 13:08:27;;;;;;;1.40;0.80;;;25.80;99.90;;;;;;6059255;23;20339;-77
2022/09/10 13:10:57;;;;;;;1.67;1.00;;;26.00;99.90;;;;;;6082295;23;20463;-76
2022/09/10 13:13:34;;;;;;;2.78;1.00;;;26.10;99.90;;;;;;6081960;23;20549;-76